Time;durP1;ratioP1;P1;durP2;ratioP2;P2;SDS_P1;SDS_P2;PMS_P1;PMS_P2;Temp;Humidity;BMP_temperature;BMP_pressure;BME280_temperature;BME280_humidity;BME280_pressure;Samples;Min_cycle;Max_cycle;Signal;HPM_P1;HPM_P2
2022/12/15 00:38:43;;;;;;;16.83;6.07;;;14.60;37.60;;;;;;6182439;23;45303;-73
2022/12/15 00:41:11;;;;;;;12.68;5.38;;;14.50;37.40;;;;;;6183031;23;45237;-73
2022/12/15 00:43:38;;;;;;;17.73;6.22;;;14.60;37.50;;;;;;6183188;23;45388;-73
2022/12/15 00:48:51;;;;;;;17.45;6.25;;;14.50;37.30;;;;;;6183794;23;45277;-73
2022/12/15 00:51:18;;;;;;;14.55;5.80;;;14.50;37.40;;;;;;6184276;23;45157;-73
2022/12/15 01:21:13;;;;;;;18.75;5.85;;;14.50;36.90;;;;;;6184275;23;45230;-73
2022/12/15 01:23:41;;;;;;;14.50;5.70;;;14.50;36.90;;;;;;6183308;23;45266;-73
2022/12/15 01:26:08;;;;;;;14.63;6.25;;;14.50;36.80;;;;;;6184018;23;45289;-73
2022/12/15 01:28:37;;;;;;;11.98;6.18;;;14.50;36.80;;;;;;6183844;23;47347;-73
2022/12/15 01:31:10;;;;;;;15.05;7.20;;;14.50;36.80;;;;;;6183973;23;45214;-73
2022/12/15 01:33:41;;;;;;;18.95;6.90;;;14.50;36.90;;;;;;6184029;23;45252;-73
2022/12/15 01:36:09;;;;;;;12.63;5.78;;;14.50;36.90;;;;;;6182434;23;45437;-73
2022/12/15 01:38:36;;;;;;;13.93;5.85;;;14.50;36.90;;;;;;6183246;22;46599;-73
2022/12/15 01:41:04;;;;;;;17.20;6.55;;;14.50;36.90;;;;;;6182419;23;45380;-73
2022/12/15 01:43:33;;;;;;;16.83;6.70;;;14.50;36.90;;;;;;6183431;23;45277;-73
2022/12/15 01:46:10;;;;;;;12.95;5.57;;;14.50;36.90;;;;;;6183942;23;45239;-72
2022/12/15 01:48:43;;;;;;;14.60;6.03;;;14.50;36.90;;;;;;6184169;23;45285;-74
2022/12/15 01:51:17;;;;;;;12.90;5.88;;;14.50;36.90;;;;;;6184140;23;46172;-74
2022/12/15 01:53:51;;;;;;;16.20;6.45;;;14.50;36.80;;;;;;6181591;23;45360;-73
2022/12/15 01:56:19;;;;;;;11.10;5.72;;;14.50;36.70;;;;;;6183489;23;45312;-73
2022/12/15 01:58:49;;;;;;;13.95;5.68;;;14.50;36.60;;;;;;6182864;23;45296;-74
2022/12/15 02:01:16;;;;;;;14.75;6.40;;;14.50;36.60;;;;;;6183656;23;45174;-73
2022/12/15 02:03:47;;;;;;;11.02;5.78;;;14.50;36.60;;;;;;6183017;23;45351;-73
2022/12/15 02:06:14;;;;;;;13.43;6.32;;;14.50;36.60;;;;;;6183496;23;45200;-74
2022/12/15 02:08:46;;;;;;;12.57;5.80;;;14.50;36.50;;;;;;6186258;23;48060;-73
2022/12/15 02:11:31;;;;;;;15.90;6.15;;;14.50;36.50;;;;;;6183317;23;45267;-73
2022/12/15 02:14:01;;;;;;;16.38;6.38;;;14.50;36.40;;;;;;6182954;23;45305;-72
2022/12/15 02:16:36;;;;;;;14.77;6.07;;;14.50;36.50;;;;;;6182546;23;45248;-73
2022/12/15 02:19:29;;;;;;;13.18;6.45;;;14.50;36.60;;;;;;6183491;23;47325;-73
2022/12/15 02:22:09;;;;;;;16.05;6.13;;;14.50;36.50;;;;;;6182778;23;45275;-73
2022/12/15 02:24:52;;;;;;;16.38;6.57;;;14.50;36.50;;;;;;6183228;23;45512;-72
2022/12/15 02:27:33;;;;;;;11.48;6.43;;;14.50;36.50;;;;;;6184150;23;45253;-73
2022/12/15 02:30:25;;;;;;;12.32;6.30;;;14.40;36.50;;;;;;6182308;23;45732;-73
2022/12/15 02:33:07;;;;;;;13.60;6.60;;;14.40;36.50;;;;;;6182520;23;45483;-72
2022/12/15 02:35:45;;;;;;;15.70;5.90;;;14.50;36.40;;;;;;6180995;23;45413;-73
2022/12/15 02:38:12;;;;;;;16.65;6.40;;;14.50;36.20;;;;;;6183440;22;45273;-73
2022/12/15 02:40:40;;;;;;;12.45;6.22;;;14.50;36.20;;;;;;6181378;23;46090;-73
2022/12/15 02:43:08;;;;;;;13.27;5.90;;;14.50;36.20;;;;;;6182516;23;45237;-72
2022/12/15 02:45:46;;;;;;;12.55;6.28;;;14.50;36.20;;;;;;6182887;23;45444;-72
2022/12/15 02:48:27;;;;;;;11.52;6.30;;;14.50;36.20;;;;;;6184098;23;45358;-73
2022/12/15 02:51:09;;;;;;;12.32;6.78;;;14.50;36.20;;;;;;6183193;23;45312;-73
2022/12/15 02:54:01;;;;;;;13.60;6.05;;;14.50;36.20;;;;;;6183339;23;45279;-73
2022/12/15 02:56:35;;;;;;;15.68;6.05;;;14.50;36.20;;;;;;6183830;23;45487;-73
2022/12/15 02:59:09;;;;;;;14.45;6.13;;;14.40;36.10;;;;;;6183429;23;45226;-73
2022/12/15 03:01:43;;;;;;;11.68;6.72;;;14.50;36.10;;;;;;6183531;23;47289;-72
2022/12/15 03:04:11;;;;;;;12.48;6.10;;;14.40;36.10;;;;;;6182095;23;45261;-73
2022/12/15 03:06:39;;;;;;;10.93;6.10;;;14.40;36.10;;;;;;6183672;23;45295;-73
2022/12/15 03:09:06;;;;;;;16.33;6.32;;;14.40;36.00;;;;;;6183303;23;45486;-72
2022/12/15 03:11:33;;;;;;;13.02;6.28;;;14.40;36.10;;;;;;6183333;23;47616;-73
2022/12/15 03:13:59;;;;;;;13.25;6.53;;;14.40;36.00;;;;;;6182127;23;45231;-73
2022/12/15 03:16:26;;;;;;;11.73;6.40;;;14.40;36.00;;;;;;6182886;23;45319;-74
2022/12/15 03:18:55;;;;;;;12.73;6.38;;;14.40;35.90;;;;;;6183742;23;45376;-72
2022/12/15 03:21:22;;;;;;;10.48;6.05;;;14.40;35.90;;;;;;6182242;23;45355;-73
2022/12/15 03:23:49;;;;;;;12.82;6.15;;;14.40;35.90;;;;;;6182500;23;45871;-72
2022/12/15 03:26:16;;;;;;;13.50;6.55;;;14.50;35.90;;;;;;6182900;23;45335;-73
2022/12/15 03:28:43;;;;;;;11.77;6.25;;;14.50;36.00;;;;;;6183637;23;45216;-73
2022/12/15 03:31:09;;;;;;;11.95;6.63;;;14.50;35.90;;;;;;6183127;23;45220;-73
2022/12/15 03:33:36;;;;;;;11.40;6.35;;;14.50;36.00;;;;;;6182109;23;45426;-74
2022/12/15 03:36:05;;;;;;;11.30;5.80;;;14.40;35.90;;;;;;6181910;23;45430;-73
2022/12/15 03:38:32;;;;;;;11.75;5.97;;;14.40;35.90;;;;;;6182626;23;45339;-73
2022/12/15 03:40:59;;;;;;;9.30;5.90;;;14.40;35.90;;;;;;6182197;23;48043;-74
2022/12/15 03:43:26;;;;;;;10.05;6.00;;;14.40;36.00;;;;;;6182203;23;45186;-73
2022/12/15 03:45:52;;;;;;;8.45;5.68;;;14.40;36.00;;;;;;6182569;23;45354;-73
2022/12/15 03:48:19;;;;;;;11.63;6.20;;;14.40;35.90;;;;;;6183653;23;45223;-73
2022/12/15 03:50:48;;;;;;;11.68;5.82;;;14.40;35.90;;;;;;6181928;23;47600;-73
2022/12/15 03:53:16;;;;;;;10.93;6.35;;;14.40;35.90;;;;;;6182182;23;45236;-73
2022/12/15 03:55:43;;;;;;;9.98;6.35;;;14.40;35.90;;;;;;6182827;23;45388;-73
2022/12/15 03:58:10;;;;;;;9.40;5.93;;;14.40;35.80;;;;;;6183454;23;45261;-73
2022/12/15 04:00:38;;;;;;;11.02;6.05;;;14.40;35.70;;;;;;6182309;23;46618;-73
2022/12/15 04:03:04;;;;;;;12.27;5.88;;;14.40;35.80;;;;;;6181007;23;45445;-73
2022/12/15 04:05:33;;;;;;;9.60;5.65;;;14.40;35.60;;;;;;6158759;23;45288;-73
2022/12/15 04:08:01;;;;;;;13.57;6.35;;;14.50;35.70;;;;;;6181785;23;45540;-73
2022/12/15 04:10:31;;;;;;;11.95;5.50;;;14.40;35.60;;;;;;6182105;23;46838;-74
2022/12/15 04:12:59;;;;;;;10.73;6.32;;;14.50;35.70;;;;;;6182221;23;45626;-74
2022/12/15 04:15:26;;;;;;;16.40;6.25;;;14.40;35.60;;;;;;6181583;23;45304;-74
2022/12/15 04:17:53;;;;;;;14.93;6.80;;;14.40;35.00;;;;;;6182731;23;45444;-73
2022/12/15 04:20:21;;;;;;;11.32;6.10;;;14.40;34.60;;;;;;6181854;23;46881;-73
2022/12/15 04:22:49;;;;;;;11.13;6.20;;;14.40;34.40;;;;;;6182388;23;45673;-73
2022/12/15 05:34:02;;;;;;;13.48;6.63;;;14.10;31.20;;;;;;6183392;23;45357;-73
2022/12/15 05:36:29;;;;;;;10.50;6.60;;;14.10;31.30;;;;;;6181983;23;47936;-73
2022/12/15 05:38:55;;;;;;;11.98;6.63;;;14.10;31.20;;;;;;6183489;22;45221;-73
2022/12/15 05:41:22;;;;;;;12.18;6.57;;;14.10;31.30;;;;;;6182734;23;45265;-73
2022/12/15 05:43:50;;;;;;;11.30;6.72;;;14.00;31.10;;;;;;6182401;23;45269;-73
2022/12/15 05:46:18;;;;;;;13.90;6.75;;;14.00;31.10;;;;;;6183653;23;47466;-73
2022/12/15 05:48:45;;;;;;;13.15;6.93;;;14.00;31.00;;;;;;6184176;23;45288;-72
2022/12/15 05:51:14;;;;;;;11.68;7.13;;;14.00;31.00;;;;;;6182858;23;45482;-73
2022/12/15 05:53:42;;;;;;;9.82;6.28;;;14.00;31.10;;;;;;6182796;23;45363;-73
2022/12/15 05:56:11;;;;;;;10.65;6.78;;;14.00;31.00;;;;;;6182449;23;46577;-73
2022/12/15 05:58:38;;;;;;;12.45;7.85;;;14.00;30.90;;;;;;6184068;23;45374;-74
2022/12/15 06:01:08;;;;;;;14.55;7.10;;;14.00;30.80;;;;;;6186021;23;45378;-73
2022/12/15 06:03:35;;;;;;;10.98;6.55;;;14.00;30.60;;;;;;6184018;23;45360;-73
2022/12/15 06:06:02;;;;;;;9.60;6.18;;;14.00;30.80;;;;;;6183565;23;46603;-74
2022/12/15 06:08:32;;;;;;;13.70;7.18;;;14.00;30.60;;;;;;6183664;23;45261;-73
2022/12/15 06:10:59;;;;;;;11.97;7.40;;;14.10;30.70;;;;;;6183423;23;45470;-74
2022/12/15 06:13:30;;;;;;;14.70;8.00;;;14.00;30.40;;;;;;6182754;23;45357;-74
2022/12/15 06:15:58;;;;;;;14.18;7.88;;;14.00;30.60;;;;;;6182246;23;46521;-74
2022/12/15 06:18:27;;;;;;;12.18;7.72;;;14.00;30.70;;;;;;6183410;23;45299;-73
2022/12/15 06:20:58;;;;;;;13.25;6.78;;;14.00;30.80;;;;;;6182319;23;45452;-73
2022/12/15 06:23:25;;;;;;;12.68;7.53;;;14.00;31.00;;;;;;6183349;23;45699;-73
2022/12/15 06:25:54;;;;;;;13.32;7.38;;;14.00;30.90;;;;;;6182817;23;47487;-73
2022/12/15 06:28:23;;;;;;;12.73;7.50;;;14.00;30.90;;;;;;6182376;23;45268;-73
2022/12/15 06:30:52;;;;;;;13.77;7.63;;;14.00;31.00;;;;;;6182634;23;45428;-73
2022/12/15 06:33:20;;;;;;;14.10;7.70;;;14.00;30.80;;;;;;6181767;23;45297;-73
2022/12/15 06:35:48;;;;;;;13.50;7.03;;;14.00;30.90;;;;;;6179240;23;46364;-72
2022/12/15 06:38:15;;;;;;;13.73;7.72;;;14.10;34.40;;;;;;6179057;22;45375;-73
2022/12/15 06:40:42;;;;;;;12.85;7.25;;;14.10;33.40;;;;;;6180692;23;45281;-74
2022/12/15 06:43:10;;;;;;;12.57;7.38;;;14.10;32.70;;;;;;6180882;23;45201;-73
2022/12/15 06:45:37;;;;;;;14.38;7.38;;;14.10;32.10;;;;;;6180570;23;46252;-73
2022/12/15 06:48:04;;;;;;;13.00;7.70;;;14.10;31.50;;;;;;6181351;23;45357;-73
2022/12/15 06:50:31;;;;;;;13.80;7.70;;;14.10;31.30;;;;;;6181880;23;45314;-73
2022/12/15 06:52:59;;;;;;;15.13;7.78;;;14.10;31.30;;;;;;6181172;23;45246;-74
2022/12/15 06:55:26;;;;;;;15.52;7.57;;;14.00;31.10;;;;;;6182661;23;47254;-74
2022/12/15 06:57:53;;;;;;;14.05;7.70;;;14.00;31.10;;;;;;6181431;23;45599;-73
2022/12/15 07:00:21;;;;;;;12.85;8.00;;;14.00;31.20;;;;;;6181701;23;45356;-73
2022/12/15 07:02:48;;;;;;;14.50;7.80;;;14.00;31.00;;;;;;6181172;23;45192;-74
2022/12/15 07:05:15;;;;;;;13.73;7.72;;;14.00;31.00;;;;;;6180836;23;46963;-73
2022/12/15 07:07:41;;;;;;;13.93;8.00;;;14.00;30.90;;;;;;6180394;23;45325;-73
2022/12/15 07:10:10;;;;;;;14.30;7.88;;;14.00;31.10;;;;;;6180847;23;45328;-74
2022/12/15 07:12:37;;;;;;;16.63;8.02;;;14.00;31.00;;;;;;6181907;23;45525;-73
2022/12/15 07:15:06;;;;;;;15.30;8.30;;;14.00;30.80;;;;;;6182399;23;47363;-75
2022/12/15 07:17:35;;;;;;;14.88;7.97;;;14.00;31.00;;;;;;6182736;23;45636;-74
2022/12/15 07:20:02;;;;;;;14.38;8.43;;;14.00;30.90;;;;;;6183298;23;45285;-75
2022/12/15 07:22:29;;;;;;;13.77;8.52;;;14.00;30.60;;;;;;6182863;23;45375;-73
2022/12/15 07:24:56;;;;;;;16.02;8.32;;;14.00;30.40;;;;;;6182701;23;46581;-74
2022/12/15 07:27:23;;;;;;;13.65;7.68;;;14.10;30.50;;;;;;6182901;23;45326;-73
2022/12/15 07:29:49;;;;;;;13.85;8.13;;;14.10;30.30;;;;;;6183342;23;45412;-73
2022/12/15 07:32:17;;;;;;;15.93;8.23;;;14.10;30.20;;;;;;6183772;23;45221;-73
2022/12/15 07:34:45;;;;;;;13.13;7.25;;;14.10;30.20;;;;;;6179685;23;47137;-73
2022/12/15 07:37:12;;;;;;;12.38;7.63;;;14.10;30.20;;;;;;6182182;23;45939;-73
2022/12/15 07:39:38;;;;;;;15.95;8.48;;;14.10;30.10;;;;;;6182588;23;45289;-73
2022/12/15 07:42:05;;;;;;;14.95;7.57;;;14.10;30.10;;;;;;6180609;23;45297;-73
2022/12/15 07:44:32;;;;;;;12.85;7.65;;;14.10;30.00;;;;;;6182211;23;47248;-73
2022/12/15 07:46:59;;;;;;;14.63;7.88;;;14.10;30.00;;;;;;6182210;23;45362;-73
2022/12/15 07:49:26;;;;;;;13.27;7.50;;;14.00;29.90;;;;;;6183760;23;45278;-73
2022/12/15 07:51:57;;;;;;;11.77;7.13;;;14.10;30.00;;;;;;6183080;23;45380;-73
2022/12/15 07:54:24;;;;;;;15.10;7.93;;;14.00;29.90;;;;;;6182010;23;46648;-74
2022/12/15 07:56:51;;;;;;;14.23;7.38;;;14.00;29.80;;;;;;6182764;23;46071;-73
2022/12/15 07:59:18;;;;;;;11.32;7.25;;;14.00;29.80;;;;;;6184901;23;45207;-72
2022/12/15 08:01:45;;;;;;;13.23;7.43;;;14.00;29.80;;;;;;6183103;23;45297;-73
2022/12/15 08:04:12;;;;;;;13.95;7.55;;;14.10;29.90;;;;;;6182297;23;48183;-73
2022/12/15 08:06:38;;;;;;;12.18;7.78;;;14.10;29.90;;;;;;6181061;23;45209;-73
2022/12/15 08:09:07;;;;;;;14.38;7.15;;;14.10;29.70;;;;;;6183206;23;45265;-73
2022/12/15 08:11:34;;;;;;;12.88;7.70;;;14.10;29.70;;;;;;6182064;23;45261;-73
2022/12/15 08:14:01;;;;;;;16.15;7.65;;;14.10;29.70;;;;;;6181354;23;46641;-73
2022/12/15 08:16:28;;;;;;;11.85;7.32;;;14.20;29.70;;;;;;6182518;23;45217;-73
2022/12/15 08:18:56;;;;;;;11.57;6.63;;;14.10;29.70;;;;;;6182742;23;45280;-73
2022/12/15 08:21:24;;;;;;;13.80;6.97;;;14.10;29.70;;;;;;6183122;23;45534;-73
2022/12/15 08:23:50;;;;;;;13.70;7.32;;;14.00;29.60;;;;;;6182447;23;45280;-74
2022/12/15 08:26:19;;;;;;;13.20;6.95;;;14.00;29.70;;;;;;6182730;23;45173;-74
2022/12/15 08:28:46;;;;;;;11.85;6.78;;;14.00;29.60;;;;;;6183223;23;45279;-74
2022/12/15 08:31:15;;;;;;;13.65;6.78;;;14.00;29.60;;;;;;6181615;23;45395;-73
2022/12/15 08:33:42;;;;;;;12.80;7.00;;;14.00;29.60;;;;;;6181722;23;46581;-74
2022/12/15 08:36:11;;;;;;;11.82;7.15;;;14.00;29.60;;;;;;6180804;23;45187;-73
2022/12/15 08:38:40;;;;;;;15.35;7.70;;;14.00;29.60;;;;;;6181720;22;45446;-73
2022/12/15 08:41:09;;;;;;;16.65;8.38;;;14.00;29.70;;;;;;6180566;23;45508;-72
2022/12/15 08:43:38;;;;;;;15.93;7.90;;;14.10;29.80;;;;;;6181739;23;47269;-73
2022/12/15 08:46:05;;;;;;;19.83;9.05;;;14.10;29.80;;;;;;6181603;23;45475;-74
2022/12/15 08:48:32;;;;;;;18.17;9.10;;;14.10;29.80;;;;;;6182470;23;45346;-73
2022/12/15 08:50:59;;;;;;;16.77;8.35;;;14.10;29.80;;;;;;6181445;23;45339;-73
2022/12/15 08:53:26;;;;;;;16.58;8.98;;;14.10;29.90;;;;;;6182220;23;45437;-72
2022/12/15 08:55:53;;;;;;;19.10;8.98;;;14.10;30.00;;;;;;6180932;23;45369;-73
2022/12/15 08:58:20;;;;;;;19.10;9.45;;;14.00;29.90;;;;;;6182253;23;45360;-73
2022/12/15 09:00:48;;;;;;;17.80;9.55;;;14.10;30.00;;;;;;6182605;23;45225;-74
2022/12/15 09:03:15;;;;;;;19.70;9.73;;;14.00;30.00;;;;;;6182662;23;47067;-73
2022/12/15 09:05:42;;;;;;;18.10;9.57;;;14.00;30.00;;;;;;6183341;23;45388;-73
2022/12/15 09:08:09;;;;;;;39.30;11.85;;;14.00;30.30;;;;;;6186542;23;45208;-76
2022/12/15 09:10:40;;;;;;;25.52;10.02;;;14.10;31.80;;;;;;6187950;23;45355;-76
2022/12/15 09:13:07;;;;;;;20.58;9.88;;;14.10;30.70;;;;;;6187543;23;47608;-78
2022/12/15 09:15:34;;;;;;;20.98;11.10;;;14.00;30.50;;;;;;6186473;23;45629;-78
2022/12/15 09:18:02;;;;;;;17.90;10.00;;;14.00;31.70;;;;;;6186636;23;45144;-77
2022/12/15 09:20:29;;;;;;;22.63;10.98;;;14.00;30.50;;;;;;6187417;23;45095;-76
2022/12/15 09:22:58;;;;;;;21.50;10.60;;;14.00;30.60;;;;;;6186022;23;45346;-77
2022/12/15 09:25:24;;;;;;;17.88;10.48;;;14.00;30.60;;;;;;6186292;23;45210;-77
2022/12/15 09:31:45;;;;;;;22.02;11.07;;;14.10;30.60;;;;;;6186752;23;45268;-77
2022/12/15 09:38:24;;;;;;;17.08;9.65;;;14.10;30.70;;;;;;6199055;22;45266;-75
2022/12/15 09:40:53;;;;;;;15.60;8.73;;;14.00;30.60;;;;;;6197083;22;45328;-78
2022/12/15 09:43:23;;;;;;;17.60;9.75;;;14.10;32.90;;;;;;6188014;23;45198;-79
2022/12/15 09:45:56;;;;;;;20.33;10.63;;;14.10;33.10;;;;;;6187487;23;46827;-77
2022/12/15 09:48:29;;;;;;;18.35;9.73;;;14.10;32.50;;;;;;6187864;23;45106;-76
2022/12/15 09:50:57;;;;;;;17.80;9.95;;;14.10;32.10;;;;;;6187897;23;45292;-77
2022/12/15 09:56:54;;;;;;;18.45;10.20;;;14.00;31.80;;;;;;6190458;23;45571;-78
2022/12/15 09:59:29;;;;;;;17.90;9.77;;;14.00;31.70;;;;;;6187724;23;46085;-77
2022/12/15 10:02:13;;;;;;;18.70;9.85;;;14.00;31.80;;;;;;6187775;23;45186;-79
2022/12/15 10:04:48;;;;;;;18.27;10.50;;;14.10;31.80;;;;;;6188318;23;45403;-80
2022/12/15 10:07:22;;;;;;;18.92;10.45;;;14.10;31.80;;;;;;6188169;23;47986;-80
2022/12/15 10:09:49;;;;;;;18.75;10.95;;;14.10;31.80;;;;;;6188066;23;45892;-80
2022/12/15 10:15:45;;;;;;;18.13;10.07;;;14.20;31.60;;;;;;6187848;23;45084;-80
2022/12/15 10:18:24;;;;;;;17.67;10.20;;;14.20;31.50;;;;;;6187555;23;45695;-78
2022/12/15 10:20:53;;;;;;;18.55;10.75;;;14.20;31.60;;;;;;6187848;23;45930;-79
2022/12/15 10:26:44;;;;;;;16.98;9.15;;;14.20;31.60;;;;;;6188205;23;45169;-79
2022/12/15 10:29:23;;;;;;;16.60;9.48;;;14.10;31.40;;;;;;6187420;23;47912;-78
2022/12/15 10:32:19;;;;;;;17.00;10.32;;;14.10;31.50;;;;;;6187692;23;45094;-79
2022/12/15 10:34:46;;;;;;;16.13;9.45;;;14.10;31.60;;;;;;6187872;23;45207;-79
2022/12/15 10:37:17;;;;;;;19.08;10.40;;;14.10;31.50;;;;;;6187649;23;45355;-77
2022/12/15 10:39:46;;;;;;;19.75;10.93;;;14.10;31.40;;;;;;6187238;23;46685;-79
2022/12/15 10:42:19;;;;;;;15.77;9.90;;;14.10;31.50;;;;;;6187462;23;45282;-81
2022/12/15 10:44:48;;;;;;;15.65;9.48;;;14.10;31.60;;;;;;6187889;23;45246;-80
2022/12/15 10:47:21;;;;;;;18.45;10.80;;;14.10;31.70;;;;;;6187632;23;45154;-77
2022/12/15 10:49:48;;;;;;;18.20;10.07;;;14.20;31.80;;;;;;6187530;23;46776;-78
2022/12/15 10:52:22;;;;;;;19.05;10.05;;;14.20;31.60;;;;;;6187203;23;46243;-79
2022/12/15 10:54:50;;;;;;;16.42;9.77;;;14.20;31.50;;;;;;6188480;23;45304;-80
2022/12/15 10:57:21;;;;;;;16.48;10.40;;;14.20;31.30;;;;;;6187544;23;45012;-76
2022/12/15 10:59:48;;;;;;;17.05;9.18;;;14.20;31.40;;;;;;6187169;23;46965;-76
2022/12/15 11:05:38;;;;;;;15.05;9.27;;;14.20;32.50;;;;;;6187654;23;45173;-80
2022/12/15 11:08:16;;;;;;;15.50;8.88;;;14.20;32.80;;;;;;6187481;23;45375;-80
2022/12/15 11:16:59;;;;;;;15.02;8.85;;;14.20;33.50;;;;;;6187645;23;45325;-79
2022/12/15 11:19:36;;;;;;;14.57;8.90;;;14.20;33.70;;;;;;6187319;23;45114;-80
2022/12/15 11:22:11;;;;;;;15.98;9.68;;;14.30;33.80;;;;;;6187136;23;46595;-80
2022/12/15 11:24:43;;;;;;;15.85;10.27;;;14.20;33.80;;;;;;6186416;23;45095;-80
2022/12/15 11:27:15;;;;;;;14.27;9.50;;;14.30;34.00;;;;;;6187766;23;45193;-78
2022/12/15 11:29:54;;;;;;;15.65;9.70;;;14.30;35.50;;;;;;6187221;23;45488;-80
2022/12/15 11:32:24;;;;;;;19.40;9.52;;;14.30;34.30;;;;;;6187723;23;46777;-80
2022/12/15 11:34:51;;;;;;;15.40;9.23;;;14.30;34.50;;;;;;6186882;23;45122;-80
2022/12/15 11:37:38;;;;;;;16.98;9.82;;;14.40;34.60;;;;;;6187819;23;45137;-81
2022/12/15 11:40:19;;;;;;;15.85;9.23;;;14.30;34.30;;;;;;6187293;23;45327;-79
2022/12/15 11:42:59;;;;;;;15.05;10.02;;;14.30;33.70;;;;;;6187197;23;45293;-80
2022/12/15 11:45:35;;;;;;;18.40;10.32;;;14.40;33.70;;;;;;6187449;23;45252;-80
2022/12/15 11:48:10;;;;;;;21.50;10.63;;;14.30;33.40;;;;;;6187470;23;45183;-79
2022/12/15 11:50:44;;;;;;;17.42;10.77;;;14.30;33.30;;;;;;6188241;23;45397;-78
2022/12/15 11:53:36;;;;;;;17.63;10.68;;;14.30;33.20;;;;;;6189168;23;47946;-79
2022/12/15 11:56:14;;;;;;;16.90;10.10;;;14.20;33.10;;;;;;6186994;23;45312;-78
2022/12/15 11:58:55;;;;;;;17.17;10.38;;;14.30;33.30;;;;;;6187562;23;45266;-80
2022/12/15 12:01:38;;;;;;;17.75;10.02;;;14.30;33.30;;;;;;6187346;23;45358;-79
2022/12/15 12:07:32;;;;;;;16.25;9.93;;;14.20;33.20;;;;;;6187503;23;45102;-80
2022/12/15 12:10:14;;;;;;;19.02;10.27;;;14.20;33.30;;;;;;6187306;23;45170;-79
2022/12/15 12:12:49;;;;;;;17.40;10.52;;;14.20;33.30;;;;;;6187618;23;45015;-78
2022/12/15 12:15:27;;;;;;;19.65;10.43;;;14.20;33.30;;;;;;6187236;23;47005;-80
2022/12/15 12:18:00;;;;;;;19.15;9.82;;;14.20;33.30;;;;;;6187184;23;45149;-79
2022/12/15 12:20:36;;;;;;;16.65;9.98;;;14.20;33.30;;;;;;6187211;23;45162;-80
2022/12/15 12:23:08;;;;;;;17.83;9.77;;;14.20;33.50;;;;;;6187179;23;45163;-80
2022/12/15 12:25:43;;;;;;;16.77;10.25;;;14.20;33.50;;;;;;6186972;23;47278;-79
2022/12/15 12:28:17;;;;;;;18.95;10.32;;;14.20;33.40;;;;;;6186927;23;45015;-80
2022/12/15 12:30:46;;;;;;;16.92;9.98;;;14.20;33.50;;;;;;6187453;23;45103;-80
2022/12/15 12:33:22;;;;;;;17.17;9.77;;;14.20;33.50;;;;;;6187121;23;45261;-80
2022/12/15 12:35:54;;;;;;;15.98;10.05;;;14.20;33.40;;;;;;6186649;23;46531;-80
2022/12/15 12:38:27;;;;;;;14.68;9.18;;;14.30;33.40;;;;;;6187817;23;45083;-80
2022/12/15 12:41:04;;;;;;;15.25;9.13;;;14.30;33.40;;;;;;6187619;23;45343;-80
2022/12/15 12:43:33;;;;;;;15.27;8.90;;;14.30;33.40;;;;;;6188158;23;45087;-80
2022/12/15 12:46:04;;;;;;;18.23;9.18;;;14.30;33.60;;;;;;6187911;23;45275;-79
2022/12/15 12:48:36;;;;;;;14.65;8.90;;;14.30;33.50;;;;;;6187841;23;45265;-78
2022/12/15 12:51:25;;;;;;;14.05;9.30;;;14.30;33.60;;;;;;6189098;23;45120;-80
2022/12/15 12:53:52;;;;;;;14.18;8.88;;;14.30;33.50;;;;;;6188230;23;45007;-80
2022/12/15 12:56:39;;;;;;;15.75;9.77;;;14.40;33.60;;;;;;6187511;23;47301;-79
2022/12/15 12:59:36;;;;;;;16.58;9.13;;;14.40;33.60;;;;;;6187876;23;45082;-80
2022/12/15 13:02:41;;;;;;;15.00;8.68;;;14.40;33.70;;;;;;6188634;23;45054;-80
2022/12/15 13:05:30;;;;;;;14.48;8.88;;;14.40;33.60;;;;;;6188294;23;45412;-80
2022/12/15 13:08:27;;;;;;;16.40;9.68;;;14.40;33.60;;;;;;6188149;23;47998;-81
2022/12/15 13:10:55;;;;;;;16.10;9.02;;;14.40;33.60;;;;;;6187634;23;45257;-80
2022/12/15 13:13:43;;;;;;;14.40;9.15;;;14.40;33.60;;;;;;6187888;23;45295;-80
2022/12/15 13:16:20;;;;;;;16.85;10.63;;;14.40;33.60;;;;;;6188124;23;45596;-80
2022/12/15 13:19:00;;;;;;;16.50;9.88;;;14.30;33.60;;;;;;6187685;23;46668;-80
2022/12/15 13:24:51;;;;;;;14.75;9.30;;;14.30;33.60;;;;;;6188147;23;45230;-80
2022/12/15 13:27:18;;;;;;;14.05;9.32;;;14.30;33.70;;;;;;6187905;23;45132;-79
2022/12/15 13:29:56;;;;;;;15.70;9.65;;;14.30;34.00;;;;;;6188105;23;47053;-80
2022/12/15 13:32:33;;;;;;;15.10;9.95;;;14.40;36.10;;;;;;6187623;23;45338;-80
2022/12/15 13:35:21;;;;;;;16.85;10.13;;;14.40;35.00;;;;;;6187744;23;45346;-79
2022/12/15 13:37:52;;;;;;;16.48;9.75;;;14.40;34.80;;;;;;6188085;23;45146;-79
2022/12/15 13:40:33;;;;;;;17.02;10.00;;;14.40;34.40;;;;;;6187406;23;45393;-79
2022/12/15 13:43:10;;;;;;;15.80;9.32;;;14.40;34.30;;;;;;6187919;23;45262;-79
2022/12/15 13:45:56;;;;;;;14.88;9.52;;;14.30;34.10;;;;;;6187909;23;45089;-77
2022/12/15 13:48:34;;;;;;;17.45;10.48;;;14.30;33.90;;;;;;6190650;23;45169;-79
2022/12/15 13:51:25;;;;;;;18.80;10.90;;;14.30;33.90;;;;;;6187961;23;46583;-78
2022/12/15 13:53:58;;;;;;;15.27;9.70;;;14.30;33.90;;;;;;6187879;23;45229;-79
2022/12/15 13:56:39;;;;;;;17.33;10.60;;;14.20;33.70;;;;;;6185959;23;45393;-74
2022/12/15 13:59:13;;;;;;;17.77;9.93;;;14.30;34.80;;;;;;6185409;23;45182;-74
2022/12/15 14:01:49;;;;;;;16.73;10.35;;;14.30;34.80;;;;;;6184598;23;46643;-74
2022/12/15 14:04:17;;;;;;;16.20;10.43;;;14.30;34.50;;;;;;6184096;23;45293;-74
2022/12/15 14:06:48;;;;;;;17.38;10.52;;;14.20;34.40;;;;;;6184589;23;45264;-74
2022/12/15 14:09:19;;;;;;;23.67;10.10;;;14.30;34.30;;;;;;6184465;23;45525;-73
2022/12/15 14:11:46;;;;;;;21.40;9.13;;;14.40;35.20;;;;;;6183610;23;47089;-74
2022/12/15 14:14:22;;;;;;;16.35;9.77;;;14.30;34.40;;;;;;6183278;23;45280;-73
2022/12/15 14:16:57;;;;;;;18.38;10.73;;;14.30;34.40;;;;;;6183938;23;45257;-73
2022/12/15 14:19:26;;;;;;;17.20;10.38;;;14.30;34.20;;;;;;6184393;23;45653;-73
2022/12/15 14:21:55;;;;;;;21.23;10.70;;;14.30;34.20;;;;;;6183171;23;46597;-73
2022/12/15 14:24:24;;;;;;;16.33;9.75;;;14.30;34.20;;;;;;6183594;23;45495;-74
2022/12/15 14:26:51;;;;;;;16.20;10.05;;;14.30;34.20;;;;;;6183785;23;45263;-73
2022/12/15 14:29:19;;;;;;;18.77;10.40;;;14.30;34.20;;;;;;6184889;23;45435;-73
2022/12/15 14:31:50;;;;;;;20.40;10.27;;;14.30;34.10;;;;;;6184064;23;45632;-74
2022/12/15 14:34:26;;;;;;;16.83;10.40;;;14.20;34.00;;;;;;6183732;23;45314;-74
2022/12/15 14:36:55;;;;;;;19.10;11.05;;;14.30;34.00;;;;;;6183874;23;45280;-74
2022/12/15 14:39:25;;;;;;;17.48;9.88;;;14.20;34.00;;;;;;6184126;23;45293;-73
2022/12/15 14:41:56;;;;;;;16.52;10.45;;;14.20;34.00;;;;;;6183547;23;45405;-73
2022/12/15 14:44:29;;;;;;;17.92;11.27;;;14.20;33.90;;;;;;6184451;23;45280;-74
2022/12/15 14:46:56;;;;;;;18.55;11.18;;;14.20;33.90;;;;;;6183779;23;45420;-74
2022/12/15 14:49:26;;;;;;;17.55;10.95;;;14.20;33.80;;;;;;6184716;23;45514;-73
2022/12/15 14:51:59;;;;;;;18.60;11.23;;;14.20;33.70;;;;;;6183753;23;46468;-73
2022/12/15 14:54:29;;;;;;;17.17;10.73;;;14.20;33.70;;;;;;6184264;23;45229;-75
2022/12/15 15:03:41;;;;;;;19.50;9.70;;;14.30;34.50;;;;;;6187612;23;45339;-79
2022/12/15 15:06:18;;;;;;;15.18;8.88;;;14.40;34.80;;;;;;6187680;23;46156;-79
2022/12/15 15:08:48;;;;;;;15.43;9.52;;;14.30;34.80;;;;;;6187618;23;45023;-79
2022/12/15 15:11:28;;;;;;;16.95;9.55;;;14.30;35.10;;;;;;6187255;23;45484;-79
2022/12/15 15:13:56;;;;;;;14.10;9.05;;;14.30;35.20;;;;;;6187481;23;48704;-79
2022/12/15 15:16:23;;;;;;;20.27;10.07;;;14.30;35.30;;;;;;6187457;23;45540;-79
2022/12/15 15:18:52;;;;;;;15.20;9.57;;;14.30;36.60;;;;;;6187907;23;45206;-79
2022/12/15 15:21:22;;;;;;;15.23;9.48;;;14.30;35.50;;;;;;6187420;23;45076;-79
2022/12/15 15:23:58;;;;;;;14.85;9.75;;;14.30;35.50;;;;;;6187179;23;46989;-79
2022/12/15 15:26:26;;;;;;;15.40;9.65;;;14.30;35.70;;;;;;6187188;23;45147;-80
2022/12/15 15:28:54;;;;;;;15.95;8.80;;;14.30;35.60;;;;;;6187373;23;45186;-80
2022/12/15 15:31:29;;;;;;;15.48;9.55;;;14.30;35.70;;;;;;6187893;23;45000;-79
2022/12/15 15:37:21;;;;;;;15.30;9.85;;;14.40;35.80;;;;;;6187274;23;45232;-76
2022/12/15 15:39:49;;;;;;;14.93;9.35;;;14.40;35.80;;;;;;6187112;23;45171;-80
2022/12/15 15:42:16;;;;;;;16.00;9.07;;;14.50;36.10;;;;;;6190320;23;45495;-78
2022/12/15 15:48:05;;;;;;;15.13;9.40;;;14.50;35.50;;;;;;6187172;23;45333;-79
2022/12/15 15:50:32;;;;;;;15.88;9.93;;;14.40;34.90;;;;;;6187358;23;45315;-79
2022/12/15 15:53:01;;;;;;;17.15;9.85;;;14.40;34.80;;;;;;6187342;23;45079;-80
2022/12/15 15:55:31;;;;;;;18.63;10.32;;;14.40;34.60;;;;;;6187063;23;45251;-80
2022/12/15 17:18:16;;;;;;;13.85;8.82;;;15.00;35.70;;;;;;6066040;23;45284;-75
2022/12/15 17:34:49;;;;;;;17.20;10.48;;;15.00;34.70;;;;;;6069399;23;45287;-77